createdAt,value
2023-01-18T00:00:39.272Z,19.67
2023-01-18T00:03:08.902Z,19.65
2023-01-18T00:05:41.096Z,19.55
2023-01-18T00:08:12.703Z,19.45
2023-01-18T00:10:40.172Z,19.50
2023-01-18T00:13:06.987Z,19.44
2023-01-18T00:15:34.752Z,19.30
2023-01-18T00:18:01.981Z,18.91
2023-01-18T00:20:30.070Z,19.38
2023-01-18T00:22:59.783Z,19.77
2023-01-18T00:25:26.702Z,19.86
2023-01-18T00:27:55.066Z,19.67
2023-01-18T00:30:27.768Z,19.54
2023-01-18T00:32:57.466Z,19.69
2023-01-18T00:35:26.155Z,19.69
2023-01-18T00:37:53.960Z,19.71
2023-01-18T00:40:22.219Z,19.48
2023-01-18T00:43:07.718Z,19.41
2023-01-18T00:45:34.824Z,19.57
2023-01-18T00:48:02.710Z,19.56
2023-01-18T00:50:30.116Z,19.23
2023-01-18T00:52:58.692Z,19.44
2023-01-18T00:55:26.628Z,19.43
2023-01-18T00:57:53.842Z,19.73
2023-01-18T01:00:26.679Z,19.38
2023-01-18T01:02:54.504Z,19.45
2023-01-18T01:05:42.696Z,19.43
2023-01-18T01:08:16.943Z,18.85
2023-01-18T01:10:46.484Z,18.72
2023-01-18T01:13:38.862Z,19.41
2023-01-18T01:16:25.741Z,19.03
2023-01-18T01:19:11.418Z,18.99
2023-01-18T01:21:57.577Z,18.66
2023-01-18T01:24:42.988Z,18.91
2023-01-18T01:27:11.355Z,19.05
2023-01-18T01:29:38.622Z,19.10
2023-01-18T01:32:05.857Z,19.00
2023-01-18T01:34:33.149Z,19.01
2023-01-18T01:36:59.987Z,18.79
2023-01-18T01:39:26.805Z,18.84
2023-01-18T01:41:53.980Z,18.44
2023-01-18T01:44:20.845Z,18.88
2023-01-18T01:46:52.270Z,18.74
2023-01-18T01:49:32.323Z,19.05
2023-01-18T01:52:05.040Z,19.45
2023-01-18T01:54:58.088Z,19.00
2023-01-18T01:57:28.908Z,18.96
2023-01-18T02:00:04.102Z,18.69
2023-01-18T02:02:39.584Z,19.02
2023-01-18T02:05:09.473Z,18.87
2023-01-18T02:07:36.351Z,18.73
2023-01-18T02:10:04.929Z,18.92
2023-01-18T02:12:33.001Z,19.47
2023-01-18T02:15:00.540Z,18.26
2023-01-18T02:17:47.683Z,19.51
2023-01-18T02:20:48.547Z,19.21
2023-01-18T02:23:42.488Z,18.67
2023-01-18T02:26:30.509Z,19.26
2023-01-18T02:29:18.306Z,18.73
2023-01-18T02:32:14.142Z,18.26
2023-01-18T02:34:48.257Z,18.58
2023-01-18T02:38:09.123Z,19.08
2023-01-18T02:40:54.980Z,18.96
2023-01-18T02:43:43.508Z,18.99
2023-01-18T02:46:33.661Z,19.21
2023-01-18T02:49:08.530Z,19.39
2023-01-18T02:51:35.706Z,19.34
2023-01-18T02:54:24.330Z,19.46
2023-01-18T02:56:54.001Z,19.54
2023-01-18T02:59:20.683Z,19.40
2023-01-18T03:01:53.472Z,18.98
2023-01-18T03:04:28.970Z,17.67
2023-01-18T03:07:21.495Z,17.60
2023-01-18T03:09:48.774Z,18.55
2023-01-18T03:12:18.552Z,19.12
2023-01-18T03:14:54.800Z,18.96
2023-01-18T03:17:46.765Z,19.08
2023-01-18T03:20:19.635Z,19.58
2023-01-18T03:23:10.432Z,19.50
2023-01-18T03:25:41.329Z,18.72
2023-01-18T03:28:38.195Z,19.28
2023-01-18T03:31:28.695Z,19.87
2023-01-18T03:34:14.327Z,19.90
2023-01-18T03:36:47.845Z,19.71
2023-01-18T03:39:23.587Z,19.60
2023-01-18T03:41:53.759Z,19.58
2023-01-18T03:44:29.373Z,19.61
2023-01-18T03:46:57.383Z,19.39
2023-01-18T03:49:27.355Z,19.69
2023-01-18T03:51:59.951Z,19.77
2023-01-18T03:54:41.906Z,19.66
2023-01-18T03:57:38.718Z,18.94
2023-01-18T04:00:09.461Z,19.25
2023-01-18T04:02:47.159Z,19.90
2023-01-18T04:05:14.668Z,20.00
2023-01-18T04:07:42.808Z,19.98
2023-01-18T04:10:11.006Z,19.51
2023-01-18T04:12:37.763Z,18.70
2023-01-18T04:15:05.269Z,18.40
2023-01-18T04:17:32.057Z,19.62
2023-01-18T04:19:58.915Z,19.86
2023-01-18T04:22:26.760Z,20.14
2023-01-18T04:24:53.665Z,19.67
2023-01-18T04:27:20.659Z,18.98
2023-01-18T04:29:48.059Z,18.91
2023-01-18T04:32:14.800Z,19.30
2023-01-18T04:34:41.667Z,19.36
2023-01-18T04:37:08.869Z,19.14
2023-01-18T04:39:36.709Z,19.89
2023-01-18T04:42:03.617Z,18.75
2023-01-18T04:44:30.364Z,18.45
2023-01-18T04:46:57.122Z,18.52
2023-01-18T04:49:24.208Z,19.51
2023-01-18T04:51:51.084Z,18.70
2023-01-18T04:54:19.106Z,19.80
2023-01-18T04:56:46.107Z,20.23
2023-01-18T04:59:16.047Z,20.03
2023-01-18T05:01:43.312Z,19.32
2023-01-18T05:04:10.356Z,19.49
2023-01-18T05:06:37.197Z,19.89
2023-01-18T05:09:04.060Z,19.76
2023-01-18T05:11:31.079Z,19.89
2023-01-18T05:13:57.785Z,19.86
2023-01-18T05:16:24.901Z,19.82
2023-01-18T05:18:51.827Z,20.25
2023-01-18T05:21:18.816Z,19.82
2023-01-18T05:23:45.976Z,19.41
2023-01-18T05:26:19.071Z,19.75
2023-01-18T05:28:46.501Z,19.61
2023-01-18T05:31:14.899Z,20.02
2023-01-18T05:33:41.763Z,19.91
2023-01-18T05:36:08.811Z,19.35
2023-01-18T05:38:35.580Z,19.79
2023-01-18T05:41:02.528Z,19.24
2023-01-18T05:43:30.006Z,20.52
2023-01-18T05:45:57.300Z,20.24
2023-01-18T05:48:24.725Z,20.02
2023-01-18T05:50:55.332Z,19.75
2023-01-18T05:53:23.024Z,19.76
2023-01-18T05:55:58.757Z,19.71
2023-01-18T05:58:26.916Z,20.21
2023-01-18T06:00:53.868Z,19.46
2023-01-18T06:03:21.296Z,19.52
2023-01-18T06:05:48.556Z,19.30
2023-01-18T06:08:15.958Z,19.60
2023-01-18T06:10:43.598Z,18.88
2023-01-18T06:13:10.793Z,19.53
2023-01-18T06:15:37.838Z,19.74
2023-01-18T06:18:04.801Z,19.36
2023-01-18T06:20:31.816Z,20.10
2023-01-18T06:22:59.057Z,19.53
2023-01-18T06:25:26.103Z,19.89
2023-01-18T06:27:52.966Z,19.09
2023-01-18T06:30:20.344Z,20.02
2023-01-18T06:32:49.270Z,19.46
2023-01-18T06:35:16.563Z,19.75
2023-01-18T06:37:45.492Z,19.30
2023-01-18T06:40:12.599Z,19.57
2023-01-18T06:42:41.179Z,19.78
2023-01-18T06:45:08.516Z,19.33
2023-01-18T06:47:35.293Z,19.47
2023-01-18T06:50:02.195Z,19.29
2023-01-18T06:52:28.920Z,20.18
2023-01-18T06:54:55.769Z,20.27
2023-01-18T06:57:22.989Z,19.41
2023-01-18T06:59:49.848Z,19.77
2023-01-18T07:02:16.665Z,20.47
2023-01-18T07:04:45.315Z,19.61
2023-01-18T07:07:13.448Z,19.96
2023-01-18T07:09:40.193Z,19.30
2023-01-18T07:12:07.019Z,19.16
2023-01-18T07:14:34.318Z,19.84
2023-01-18T07:17:01.261Z,19.13
2023-01-18T07:19:28.068Z,18.64
2023-01-18T07:21:54.895Z,19.05
2023-01-18T07:24:22.389Z,19.99
2023-01-18T07:26:49.207Z,18.93
2023-01-18T07:29:16.279Z,19.71
2023-01-18T07:31:43.246Z,20.02
2023-01-18T07:34:10.980Z,20.84
2023-01-18T07:36:41.929Z,19.58
2023-01-18T07:39:09.936Z,20.07
2023-01-18T07:41:37.772Z,19.93
2023-01-18T07:44:05.147Z,20.34
2023-01-18T07:46:32.351Z,19.63
2023-01-18T07:48:59.360Z,20.88
2023-01-18T07:51:26.172Z,20.43
2023-01-18T07:53:54.696Z,19.96
2023-01-18T07:56:22.834Z,20.90
2023-01-18T07:58:49.732Z,21.30
2023-01-18T08:01:22.139Z,20.90
2023-01-18T08:03:50.298Z,19.94
2023-01-18T08:06:27.444Z,20.96
2023-01-18T08:08:55.943Z,20.27
2023-01-18T08:11:23.202Z,22.19
2023-01-18T08:13:52.495Z,22.39
2023-01-18T08:16:19.342Z,21.54
2023-01-18T08:18:49.270Z,20.50
2023-01-18T08:21:16.122Z,21.89
2023-01-18T08:23:43.089Z,21.01
2023-01-18T08:26:10.779Z,22.12
2023-01-18T08:28:37.619Z,22.44
2023-01-18T08:31:16.660Z,22.11
2023-01-18T08:33:46.025Z,21.36
2023-01-18T08:36:15.858Z,20.73
2023-01-18T08:38:42.947Z,20.38
2023-01-18T08:41:09.693Z,21.67
2023-01-18T08:43:37.998Z,22.50
2023-01-18T08:46:05.026Z,21.31
2023-01-18T08:48:31.849Z,21.12
2023-01-18T08:51:02.885Z,20.97
2023-01-18T08:53:30.858Z,20.30
2023-01-18T08:55:57.904Z,21.48
2023-01-18T08:58:25.195Z,21.56
2023-01-18T09:00:53.548Z,21.34
2023-01-18T09:03:22.290Z,22.00
2023-01-18T09:05:50.103Z,22.77
2023-01-18T09:08:17.961Z,23.83
2023-01-18T09:10:44.956Z,23.20
2023-01-18T09:13:11.749Z,22.34
2023-01-18T09:15:38.893Z,23.22
2023-01-18T09:18:07.659Z,22.42
2023-01-18T09:20:36.218Z,22.34
2023-01-18T09:23:07.671Z,23.00
2023-01-18T09:25:37.825Z,23.93
2023-01-18T09:28:05.196Z,24.00
2023-01-18T09:30:33.127Z,22.14
2023-01-18T09:33:01.114Z,22.33
2023-01-18T09:35:28.495Z,21.98
2023-01-18T09:37:56.869Z,22.65
2023-01-18T09:40:36.409Z,22.15
2023-01-18T09:43:03.484Z,21.31
2023-01-18T09:45:35.076Z,21.66
2023-01-18T09:48:28.901Z,21.80
2023-01-18T09:51:00.751Z,22.42
2023-01-18T09:53:53.422Z,21.06
2023-01-18T09:56:29.819Z,22.55
2023-01-18T09:59:35.754Z,22.25
2023-01-18T10:02:12.696Z,22.72
2023-01-18T10:04:43.282Z,22.68
2023-01-18T10:07:18.367Z,21.74
2023-01-18T10:09:50.310Z,21.76
2023-01-18T10:12:43.628Z,22.01
2023-01-18T10:15:28.151Z,21.90
2023-01-18T10:17:57.674Z,22.48
2023-01-18T10:20:45.519Z,22.13
2023-01-18T10:23:15.675Z,22.23
2023-01-18T10:25:52.350Z,22.64
2023-01-18T10:28:28.179Z,22.05
2023-01-18T10:31:36.736Z,21.48
2023-01-18T10:34:11.839Z,22.23
2023-01-18T10:36:43.806Z,21.61
2023-01-18T10:39:38.451Z,22.56
2023-01-18T10:42:29.291Z,22.62
2023-01-18T10:44:56.146Z,21.39
2023-01-18T10:47:22.949Z,22.17
2023-01-18T10:49:51.490Z,23.46
2023-01-18T10:52:29.744Z,22.00
2023-01-18T10:55:02.420Z,21.91
2023-01-18T10:57:36.922Z,21.67
2023-01-18T11:00:21.269Z,21.81
2023-01-18T11:02:50.672Z,23.33
2023-01-18T11:05:23.479Z,22.00
2023-01-18T11:08:12.182Z,21.84
2023-01-18T11:10:40.275Z,22.76
2023-01-18T11:13:47.218Z,21.27
2023-01-18T11:16:20.895Z,22.62
2023-01-18T11:19:17.493Z,22.33
2023-01-18T11:21:47.063Z,23.01
2023-01-18T11:24:42.436Z,21.87
2023-01-18T11:27:16.717Z,22.41
2023-01-18T11:29:45.981Z,23.23
2023-01-18T11:32:24.444Z,23.91
2023-01-18T11:34:54.637Z,23.51
2023-01-18T11:37:37.905Z,22.55
2023-01-18T11:40:26.736Z,23.21
2023-01-18T11:43:25.166Z,23.64
2023-01-18T11:45:59.515Z,22.50
2023-01-18T11:48:33.424Z,23.12
2023-01-18T11:51:10.241Z,23.62
2023-01-18T11:53:37.206Z,23.19
2023-01-18T11:56:14.864Z,23.79
2023-01-18T11:58:41.821Z,24.66
2023-01-18T12:01:37.756Z,24.71
2023-01-18T12:04:11.977Z,25.39
2023-01-18T12:06:54.978Z,24.88
2023-01-18T12:09:35.647Z,24.65
2023-01-18T12:12:19.830Z,25.51
2023-01-18T12:15:05.424Z,27.01
2023-01-18T12:18:13.539Z,28.66
2023-01-18T12:20:49.876Z,28.78
2023-01-18T12:23:28.779Z,30.14
2023-01-18T12:26:11.430Z,31.11
2023-01-18T12:28:45.047Z,28.76
2023-01-18T12:31:30.383Z,26.79
2023-01-18T12:34:27.070Z,27.48
2023-01-18T12:37:18.293Z,29.27
2023-01-18T12:40:21.880Z,29.55
2023-01-18T12:43:10.173Z,31.88
2023-01-18T12:45:52.029Z,31.45
2023-01-18T12:48:21.776Z,31.80
2023-01-18T12:50:51.153Z,28.93
2023-01-18T12:53:28.724Z,28.59
2023-01-18T12:55:56.583Z,30.18
2023-01-18T12:58:26.440Z,28.85
2023-01-18T13:01:05.746Z,30.85
2023-01-18T13:03:41.335Z,31.35
2023-01-18T13:06:09.915Z,32.83
2023-01-18T13:08:57.268Z,31.60
2023-01-18T13:11:41.543Z,27.91
2023-01-18T13:14:17.986Z,30.69
2023-01-18T13:17:10.949Z,29.14
2023-01-18T13:19:58.688Z,27.61
2023-01-18T13:22:37.535Z,29.28
2023-01-18T13:25:31.380Z,30.10
2023-01-18T13:28:02.235Z,31.37
2023-01-18T13:30:32.245Z,31.60
2023-01-18T13:32:59.919Z,31.88
2023-01-18T13:35:33.309Z,32.21
2023-01-18T13:38:12.498Z,32.45
2023-01-18T13:40:51.886Z,33.19
2023-01-18T13:43:35.372Z,32.90
2023-01-18T13:46:06.731Z,32.44
2023-01-18T13:48:54.405Z,32.40
2023-01-18T13:51:40.809Z,32.02
2023-01-18T13:54:14.897Z,29.88
2023-01-18T13:57:01.739Z,29.25
2023-01-18T13:59:33.911Z,28.23
2023-01-18T14:02:27.649Z,26.34
2023-01-18T14:05:25.785Z,26.51
2023-01-18T14:07:59.488Z,26.80
2023-01-18T14:10:31.424Z,26.72
2023-01-18T14:13:01.061Z,26.27
2023-01-18T14:15:39.591Z,26.53
2023-01-18T14:18:33.053Z,26.21
2023-01-18T14:21:12.427Z,26.37
2023-01-18T14:24:15.035Z,25.99
2023-01-18T14:26:44.183Z,25.86
2023-01-18T14:29:35.852Z,25.60
2023-01-18T14:32:06.712Z,25.53
2023-01-18T14:34:39.836Z,25.53
2023-01-18T14:37:29.781Z,25.15
2023-01-18T14:40:17.165Z,25.00
2023-01-18T14:42:49.614Z,24.98
2023-01-18T14:45:27.367Z,24.78
2023-01-18T14:47:56.234Z,24.44
2023-01-18T14:50:25.138Z,24.53
2023-01-18T14:52:53.155Z,23.95
2023-01-18T14:56:01.215Z,24.05
2023-01-18T14:58:28.157Z,24.39
2023-01-18T15:00:55.332Z,24.13
2023-01-18T15:03:30.689Z,24.13
2023-01-18T15:06:11.302Z,24.38
2023-01-18T15:08:40.182Z,24.44
2023-01-18T15:11:07.316Z,23.87
2023-01-18T15:13:47.596Z,24.20
2023-01-18T15:16:21.666Z,24.19
2023-01-18T15:18:53.922Z,24.13
2023-01-18T15:21:24.664Z,24.09
2023-01-18T15:23:57.889Z,24.02
2023-01-18T15:26:40.080Z,24.04
2023-01-18T15:29:14.055Z,23.93
2023-01-18T15:31:47.534Z,24.04
2023-01-18T15:34:16.702Z,24.05
2023-01-18T15:36:44.794Z,23.66
2023-01-18T15:39:13.962Z,23.69
2023-01-18T15:41:44.044Z,23.87
2023-01-18T15:44:47.939Z,23.87
2023-01-18T15:47:24.576Z,23.26
2023-01-18T15:49:53.824Z,23.66
2023-01-18T15:52:43.994Z,23.52
2023-01-18T15:55:35.942Z,23.45
2023-01-18T15:58:25.073Z,23.22
2023-01-18T16:00:58.300Z,23.43
2023-01-18T16:03:34.108Z,23.38
2023-01-18T16:06:12.699Z,23.36
2023-01-18T16:09:00.327Z,22.96
2023-01-18T16:11:30.319Z,23.08
2023-01-18T16:13:59.089Z,22.71
2023-01-18T16:16:26.948Z,22.87
2023-01-18T16:19:19.520Z,22.79
2023-01-18T16:21:59.697Z,22.80
2023-01-18T16:24:29.732Z,22.81
2023-01-18T16:27:00.396Z,23.14
2023-01-18T16:29:27.389Z,23.10
2023-01-18T16:32:19.412Z,23.24
2023-01-18T16:34:46.364Z,22.90
2023-01-18T16:37:13.427Z,23.08
2023-01-18T16:39:41.043Z,23.02
2023-01-18T16:42:11.095Z,22.86
2023-01-18T16:44:39.611Z,22.45
2023-01-18T16:47:06.546Z,22.87
2023-01-18T16:49:33.288Z,22.96
2023-01-18T16:52:00.162Z,22.86
2023-01-18T16:54:26.907Z,22.89
2023-01-18T16:56:53.781Z,22.88
2023-01-18T16:59:22.292Z,22.86
2023-01-18T17:01:50.348Z,23.02
2023-01-18T17:04:17.833Z,22.66
2023-01-18T17:06:45.054Z,22.84
2023-01-18T17:09:20.060Z,22.81
2023-01-18T17:11:47.947Z,22.31
2023-01-18T17:14:15.180Z,22.62
2023-01-18T17:16:43.314Z,22.45
2023-01-18T17:19:21.317Z,22.70
2023-01-18T17:21:50.126Z,22.48
2023-01-18T17:24:21.141Z,22.36
2023-01-18T17:26:48.444Z,22.36
2023-01-18T17:29:17.957Z,21.55
2023-01-18T17:31:52.227Z,21.79
2023-01-18T17:34:28.399Z,21.85
2023-01-18T17:36:58.264Z,22.27
2023-01-18T17:39:32.123Z,22.18
2023-01-18T17:42:14.287Z,21.94
2023-01-18T17:44:43.506Z,22.08
2023-01-18T17:47:10.440Z,22.14
2023-01-18T17:49:37.091Z,22.27
2023-01-18T17:52:04.083Z,22.20
2023-01-18T17:54:30.857Z,21.86
2023-01-18T17:56:58.060Z,21.86
2023-01-18T17:59:24.787Z,21.70
2023-01-18T18:01:51.680Z,21.92
2023-01-18T18:04:18.632Z,21.62
2023-01-18T18:06:53.720Z,21.61
2023-01-18T18:09:20.957Z,21.71
2023-01-18T18:11:48.084Z,21.73
2023-01-18T18:14:17.026Z,21.72
2023-01-18T18:16:44.628Z,21.90
2023-01-18T18:19:14.561Z,22.02
2023-01-18T18:21:43.000Z,21.89
2023-01-18T18:24:10.080Z,21.87
2023-01-18T18:26:37.065Z,21.67
2023-01-18T18:29:04.184Z,21.48
2023-01-18T18:31:31.110Z,21.68
2023-01-18T18:33:58.240Z,21.69
2023-01-18T18:36:27.475Z,21.27
2023-01-18T18:38:54.513Z,21.22
2023-01-18T18:41:21.671Z,21.25
2023-01-18T18:43:48.383Z,21.26
2023-01-18T18:46:15.236Z,21.08
2023-01-18T18:48:42.624Z,20.62
2023-01-18T18:51:09.968Z,20.81
2023-01-18T18:53:40.069Z,20.75
2023-01-18T18:56:10.333Z,20.59
2023-01-18T18:58:38.460Z,20.27
2023-01-18T19:01:06.572Z,20.60
2023-01-18T19:03:36.917Z,20.77
2023-01-18T19:06:03.737Z,20.79
2023-01-18T19:08:31.013Z,20.94
2023-01-18T19:10:57.836Z,20.65
2023-01-18T19:13:24.535Z,20.35
2023-01-18T19:15:51.739Z,20.49
2023-01-18T19:18:18.678Z,20.47
2023-01-18T19:20:46.205Z,19.82
2023-01-18T19:23:13.354Z,19.83
2023-01-18T19:25:40.660Z,19.15
2023-01-18T19:28:07.771Z,18.91
2023-01-18T19:30:34.913Z,19.72
2023-01-18T19:33:03.226Z,19.63
2023-01-18T19:35:31.216Z,20.01
2023-01-18T19:38:00.866Z,20.07
2023-01-18T19:40:27.739Z,19.94
2023-01-18T19:42:54.653Z,19.99
2023-01-18T19:45:28.290Z,19.87
2023-01-18T19:47:58.523Z,19.82
2023-01-18T19:50:27.008Z,19.71
2023-01-18T19:52:54.644Z,19.73
2023-01-18T19:55:21.725Z,19.54
2023-01-18T19:57:49.874Z,19.43
2023-01-18T20:00:17.079Z,19.65
2023-01-18T20:02:44.415Z,19.61
2023-01-18T20:05:11.320Z,19.27
2023-01-18T20:07:39.567Z,19.45
2023-01-18T20:10:07.728Z,19.46
2023-01-18T20:12:35.027Z,19.27
2023-01-18T20:15:01.850Z,18.90
2023-01-18T20:17:28.734Z,19.21
2023-01-18T20:19:55.467Z,19.34
2023-01-18T20:22:23.613Z,19.30
2023-01-18T20:24:51.447Z,19.63
2023-01-18T20:27:18.166Z,19.41
2023-01-18T20:29:45.411Z,19.49
2023-01-18T20:32:16.503Z,19.54
2023-01-18T20:34:45.299Z,19.58
2023-01-18T20:37:15.964Z,19.23
2023-01-18T20:39:42.942Z,18.49
2023-01-18T20:42:10.143Z,17.38
2023-01-18T20:44:37.493Z,18.86
2023-01-18T20:47:04.917Z,19.04
2023-01-18T20:49:39.230Z,18.93
2023-01-18T20:52:07.527Z,19.45
2023-01-18T20:54:36.312Z,19.53
2023-01-18T20:57:04.729Z,18.60
2023-01-18T20:59:31.642Z,18.48
2023-01-18T21:01:58.556Z,19.04
2023-01-18T21:04:25.591Z,19.41
2023-01-18T21:06:52.599Z,19.19
2023-01-18T21:09:19.391Z,19.30
2023-01-18T21:11:46.227Z,19.63
2023-01-18T21:14:13.040Z,19.83
2023-01-18T21:16:40.363Z,19.71
2023-01-18T21:19:07.274Z,19.46
2023-01-18T21:21:34.020Z,19.42
2023-01-18T21:24:01.239Z,18.95
2023-01-18T21:26:28.174Z,19.03
2023-01-18T21:28:55.251Z,19.03
2023-01-18T21:31:22.009Z,19.28
2023-01-18T21:33:49.403Z,18.17
2023-01-18T21:36:17.931Z,17.64
2023-01-18T21:38:45.027Z,19.03
2023-01-18T21:41:30.633Z,19.51
2023-01-18T21:44:15.737Z,18.34
2023-01-18T21:46:47.283Z,19.11
2023-01-18T21:49:47.063Z,19.18
2023-01-18T21:52:38.315Z,18.57
2023-01-18T21:55:05.566Z,19.23
2023-01-18T21:57:35.048Z,19.37
2023-01-18T22:00:02.296Z,19.05
2023-01-18T22:02:34.382Z,19.43
2023-01-18T22:05:03.283Z,19.38
2023-01-18T22:07:32.750Z,19.76
2023-01-18T22:10:04.987Z,18.97
2023-01-18T22:12:36.101Z,19.23
2023-01-18T22:15:04.452Z,19.30
2023-01-18T22:17:31.732Z,19.73
2023-01-18T22:19:58.431Z,19.85
2023-01-18T22:22:25.187Z,19.07
2023-01-18T22:24:52.137Z,18.65
2023-01-18T22:27:18.911Z,18.92
2023-01-18T22:29:45.740Z,18.66
2023-01-18T22:32:12.711Z,18.91
2023-01-18T22:34:39.595Z,19.29
2023-01-18T22:37:07.375Z,19.44
2023-01-18T22:39:34.220Z,18.98
2023-01-18T22:42:00.978Z,19.33
2023-01-18T22:44:27.730Z,18.87
2023-01-18T22:46:54.574Z,18.55
2023-01-18T22:49:21.836Z,19.26
2023-01-18T22:51:48.688Z,19.45
2023-01-18T22:54:16.014Z,18.37
2023-01-18T22:56:43.891Z,19.20
2023-01-18T22:59:13.051Z,19.38
2023-01-18T23:01:40.065Z,19.63
2023-01-18T23:04:06.815Z,19.62
2023-01-18T23:06:45.567Z,19.63
2023-01-18T23:09:14.598Z,19.29
2023-01-18T23:11:41.520Z,19.55
2023-01-18T23:14:27.793Z,19.57
2023-01-18T23:17:13.583Z,19.44
2023-01-18T23:19:40.584Z,19.65
2023-01-18T23:22:07.669Z,19.56
2023-01-18T23:24:36.632Z,18.11
2023-01-18T23:27:04.672Z,18.58
2023-01-18T23:29:31.620Z,19.67
2023-01-18T23:31:58.720Z,19.63
2023-01-18T23:34:25.831Z,19.05
2023-01-18T23:36:53.040Z,19.11
2023-01-18T23:39:38.740Z,19.93
2023-01-18T23:42:24.415Z,19.83
2023-01-18T23:45:09.829Z,19.82
2023-01-18T23:47:55.622Z,19.80
2023-01-18T23:50:41.338Z,19.98
2023-01-18T23:53:30.576Z,20.28
2023-01-18T23:55:57.879Z,20.16
2023-01-18T23:58:25.653Z,20.22
